Terminal Aerodrome Forecast
Issued by NWS

Home | Current Version | Previous Version | Text Only | Print | Product List | Glossary On
Versions: 1 2 3 4 5 6 7 8 9 10 11 12 13 14 15 16 17 18 19 20 21
817
FTUS42 KMHX 230530
TAFOAJ
TAF
KOAJ 230530Z 2306/2406 VRB04KT 5SM BR SCT003 BKN007
      TEMPO 2309/2312 2SM BR
     FM231300 22006KT P6SM SCT015 BKN040
     FM231500 22012G20KT P6SM SCT040
     FM240100 20010KT P6SM SCT250
      AMD LTD TO CLD VIS AND WIND=

USA.gov is the U.S. government's official web portal to all federal, state and local government web resources and services.